sim
Sign-in with your pilot id or email,
or register
Callsign
Passwort

Schedule Details

Flight Number: DLH116
Departure: Frankfurt Airport (EDDF) at 17:15
Arrival: Munich Airport (EDDM) at 18:10
Route: Lufthansa Passenger Schedule. Enter filed route here before submitting Pirep.

Weather Information
Getting current METAR information for EDDF 190920Z 10007KT 070V130 CAVOK 18/05 Q1020 NOSIG
Getting current METAR information for EDDM 190920Z 08007KT 040V110 CAVOK 16/09 Q1020 NOSIG

Schedule Frequency

Route Map